Portada
METAR-TAF:

METAR-TAF

Aeroports :

Key West, Florida, Estats Units d'Amèrica

latitud: 24-34-46N, longitud: 081-41-02W, altitud: 1 m

Observació

L'informe es va fer fa 1 hora i 15 minuts, a les 16:53 UTC
Vent 6 kt del Sud/Sud-Est
Temperatura 34°C
Humitat 67%
Pressió 1019 hPa
Visibilitat: 16.1 km
Núvols disperses a una alçada de 2300 ft

METAR: KNQX 191653Z 15006KT 10SM SCT023 34/27 A3009 RMK AO2 SLP187 T03440267 $

Hora: 14:08 (18:08 UTC)

Pronòstic

Pronòstic vàlid del 19 a les 15 UTC al 20 a les 15 UTC
Vent 12 kt del Sud-Est
Visibilitat 10 km o més
xàfecs en les proximitats
A partir de les 20 a les 00/2 UTC
Vent 8 kt del Est/Sud-Est
Visibilitat 10 km o més
Núvols disperses a una alçada de 2300 ft
Núvols disperses a una alçada de 25000 ft

TAF: KNQX 1915/2015 13012KT 9999 VCSH ST023 QNH2997INS FM2000/20002 11008KT 9999 SCT023 SCT250 QNH2999INS TX34/1919Z TN29/2011Z FN20027

Observacions i pronòstics meteorològics de més de 4000 aeroports (METAR i TAF).

Les estacions disponibles són els punts grocs i vermells al mapa.

Posi el ratolí al punt desitjat per veure el nom de l'estació.

Feu clic per veure les observacions i els pronòstics meteorològics.

Per canviar el mapa: feu clic els botons verds amb una creu de color negre per apropar; al botó verd amb un guió per allunyar la imatge; o en les fletxes verdes per a mapes adjacents.


METAR-TAF: